地図

経路データ

SID SEASON NUMBER BASIN SUBBASIN NAME ISO_TIME NATURE LAT LON WMO_WIND WMO_PRES WMO_AGENCY TRACK_TYPE DIST2LAND LANDFALL IFLAG USA_AGENCY USA_ATCF_ID USA_LAT USA_LON USA_RECORD USA_STATUS USA_WIND USA_PRES USA_SSHS USA_R34_NE USA_R34_SE USA_R34_SW USA_R34_NW USA_R50_NE USA_R50_SE USA_R50_SW USA_R50_NW USA_R64_NE USA_R64_SE USA_R64_SW USA_R64_NW USA_POCI USA_ROCI USA_RMW USA_EYE TOKYO_LAT TOKYO_LON TOKYO_GRADE TOKYO_WIND TOKYO_PRES TOKYO_R50_DIR TOKYO_R50_LONG TOKYO_R50_SHORT TOKYO_R30_DIR TOKYO_R30_LONG TOKYO_R30_SHORT TOKYO_LAND CMA_LAT CMA_LON CMA_CAT CMA_WIND CMA_PRES HKO_LAT HKO_LON HKO_CAT HKO_WIND HKO_PRES NEWDELHI_LAT NEWDELHI_LON NEWDELHI_GRADE NEWDELHI_WIND NEWDELHI_PRES NEWDELHI_CI NEWDELHI_DP NEWDELHI_POCI REUNION_LAT REUNION_LON REUNION_TYPE REUNION_WIND REUNION_PRES REUNION_TNUM REUNION_CI REUNION_RMW REUNION_R34_NE REUNION_R34_SE REUNION_R34_SW REUNION_R34_NW REUNION_R50_NE REUNION_R50_SE REUNION_R50_SW REUNION_R50_NW REUNION_R64_NE REUNION_R64_SE REUNION_R64_SW REUNION_R64_NW BOM_LAT BOM_LON BOM_TYPE BOM_WIND BOM_PRES BOM_TNUM BOM_CI BOM_RMW BOM_R34_NE BOM_R34_SE BOM_R34_SW BOM_R34_NW BOM_R50_NE BOM_R50_SE BOM_R50_SW BOM_R50_NW BOM_R64_NE BOM_R64_SE BOM_R64_SW BOM_R64_NW BOM_ROCI BOM_POCI BOM_EYE BOM_POS_METHOD BOM_PRES_METHOD NADI_LAT NADI_LON NADI_CAT NADI_WIND NADI_PRES WELLINGTON_LAT WELLINGTON_LON WELLINGTON_WIND WELLINGTON_PRES DS824_LAT DS824_LON DS824_STAGE DS824_WIND DS824_PRES TD9636_LAT TD9636_LON TD9636_STAGE TD9636_WIND TD9636_PRES TD9635_LAT TD9635_LON TD9635_WIND TD9635_PRES TD9635_ROCI NEUMANN_LAT NEUMANN_LON NEUMANN_CLASS NEUMANN_WIND NEUMANN_PRES MLC_LAT MLC_LON MLC_CLASS MLC_WIND MLC_PRES USA_GUST BOM_GUST BOM_GUST_PER REUNION_GUST REUNION_GUST_PER USA_SEAHGT USA_SEARAD_NE USA_SEARAD_SE USA_SEARAD_SW USA_SEARAD_NW STORM_SPEED STORM_DIR
1954270N14264 1954 74 EP MM NOT_NAMED 1954-09-27 00:00:00 TS 14.0000 -96.0000 75 hurdat_epa main 190 187 O________OO___ hurdat_epa EP091954 14.0000 -96.0000 HU 75 1 14.0000 -96.0000 TC 75 14.0000 -96.0000 4 7 235
1954270N14264 1954 74 EP MM NOT_NAMED 1954-09-27 03:00:00 TS 13.7960 -96.2990 main 204 202 P________PP___ EP091954 13.7926 -96.3026 HU 75 1 13.7926 -96.3026 TC 75 13.8095 -96.2847 4 7 236
1954270N14264 1954 74 EP MM NOT_NAMED 1954-09-27 06:00:00 TS 13.6050 -96.5951 75 hurdat_epa main 223 223 O________OP___ hurdat_epa EP091954 13.6000 -96.6000 HU 75 1 13.6000 -96.6000 TC 75 13.6251 -96.5754 4 7 238
1954270N14264 1954 74 EP MM NOT_NAMED 1954-09-27 09:00:00 TS 13.4386 -96.8896 main 248 248 P________PP___ EP091954 13.4349 -96.8925 HU 75 1 13.4349 -96.8925 TC 75 13.4532 -96.8783 4 7 243
1954270N14264 1954 74 EP MM NOT_NAMED 1954-09-27 12:00:00 TS 13.3000 -97.2000 75 hurdat_epa main 265 265 O________OO___ hurdat_epa EP091954 13.3000 -97.2000 HU 75 1 13.3000 -97.2000 TC 75 13.3000 -97.2000 4 7 248
1954270N14264 1954 74 EP MM NOT_NAMED 1954-09-27 15:00:00 TS 13.1881 -97.5427 main 285 285 P________PP___ EP091954 13.1925 -97.5425 HU 75 1 13.1925 -97.5425 TC 75 13.1703 -97.5436 4 7 253
1954270N14264 1954 74 EP MM NOT_NAMED 1954-09-27 18:00:00 TS 13.0925 -97.9000 75 hurdat_epa main 312 312 O________OP___ hurdat_epa EP091954 13.1000 -97.9000 HU 75 1 13.1000 -97.9000 TC 75 13.0625 -97.8999 4 7 254
1954270N14264 1954 74 EP MM NOT_NAMED 1954-09-27 21:00:00 TS 12.9887 -98.2572 main 340 340 P________PP___ EP091954 12.9925 -98.2575 HU 75 1 12.9925 -98.2575 TC 75 12.9735 -98.2562 4 7 254
1954270N14264 1954 74 EP MM NOT_NAMED 1954-09-28 00:00:00 TS 12.9000 -98.6000 75 hurdat_epa main 357 357 O________OO___ hurdat_epa EP091954 12.9000 -98.6000 HU 75 1 12.9000 -98.6000 TC 75 12.9000 -98.6000 4 7 257
1954270N14264 1954 74 EP MM NOT_NAMED 1954-09-28 03:00:00 TS 12.8378 -98.9088 main 377 377 P________PP___ EP091954 12.8424 -98.9075 HU 75 1 12.8424 -98.9075 TC 75 12.8192 -98.9144 4 6 260
1954270N14264 1954 74 EP MM NOT_NAMED 1954-09-28 06:00:00 TS 12.7910 -99.2030 75 hurdat_epa main 388 388 O________OP___ hurdat_epa EP091954 12.8000 -99.2000 HU 75 1 12.8000 -99.2000 TC 75 12.7548 -99.2150 4 6 260
1954270N14264 1954 74 EP MM NOT_NAMED 1954-09-28 09:00:00 TS 12.7366 -99.5017 main 412 412 P________PP___ EP091954 12.7425 -99.5000 HU 75 1 12.7425 -99.5000 TC 75 12.7130 -99.5082 4 6 261
1954270N14264 1954 74 EP MM NOT_NAMED 1954-09-28 12:00:00 TS 12.7000 -99.8000 75 hurdat_epa main 423 423 O________OO___ hurdat_epa EP091954 12.7000 -99.8000 HU 75 1 12.7000 -99.8000 TC 75 12.7000 -99.8000 4 6 265
1954270N14264 1954 74 EP MM NOT_NAMED 1954-09-28 15:00:00 TS 12.6814 -100.104 main 434 434 P________PP___ EP091954 12.6775 -100.100 HU 75 1 12.6775 -100.100 TC 75 12.6969 -100.120 4 6 270
1954270N14264 1954 74 EP MM NOT_NAMED 1954-09-28 18:00:00 TS 12.7050 -100.408 75 hurdat_epa main 447 447 O________OP___ hurdat_epa EP091954 12.7000 -100.400 HU 75 1 12.7000 -100.400 TC 75 12.7251 -100.438 4 6 279
1954270N14264 1954 74 EP MM NOT_NAMED 1954-09-28 21:00:00 TS 12.7741 -100.719 main 449 444 P________PP___ EP091954 12.7700 -100.715 HU 75 1 12.7700 -100.715 TC 75 12.7907 -100.736 4 6 289
1954270N14264 1954 74 EP MM NOT_NAMED 1954-09-29 00:00:00 TS 12.9000 -101.000 75 hurdat_epa main 447 434 O________OO___ hurdat_epa EP091954 12.9000 -101.000 HU 75 1 12.9000 -101.000 TC 75 12.9000 -101.000 4 6 302
1954270N14264 1954 74 EP MM NOT_NAMED 1954-09-29 03:00:00 TS 13.0817 -101.222 main 434 422 P________PP___ EP091954 13.0850 -101.223 HU 75 1 13.0850 -101.223 TC 75 13.0689 -101.219 4 6 315
1954270N14264 1954 74 EP MM NOT_NAMED 1954-09-29 06:00:00 TS 13.2955 -101.400 75 hurdat_epa main 422 407 O________OP___ hurdat_epa EP091954 13.3000 -101.400 HU 75 1 13.3000 -101.400 TC 75 13.2773 -101.402 4 5 323
1954270N14264 1954 74 EP MM NOT_NAMED 1954-09-29 09:00:00 TS 13.5114 -101.558 main 412 398 P________PP___ EP091954 13.5150 -101.558 HU 75 1 13.5150 -101.558 TC 75 13.4971 -101.560 4 5 324
1954270N14264 1954 74 EP MM NOT_NAMED 1954-09-29 12:00:00 TS 13.7000 -101.700 75 hurdat_epa main 398 394 O________OO___ hurdat_epa EP091954 13.7000 -101.700 HU 75 1 13.7000 -101.700 TC 75 13.7000 -101.700 4 4 316
1954270N14264 1954 74 EP MM NOT_NAMED 1954-09-29 15:00:00 TS 13.8064 -101.851 main 398 387 P________PP___ EP091954 13.8075 -101.858 HU 75 1 13.8075 -101.858 TC 75 13.8018 -101.824 4 3 305
1954270N14264 1954 74 EP MM NOT_NAMED 1954-09-29 18:00:00 TS 13.8980 -101.987 75 hurdat_epa main 391 380 O________OP___ hurdat_epa EP091954 13.9000 -102.000 HU 75 1 13.9000 -102.000 TC 75 13.8898 -101.936 4 3 311
1954270N14264 1954 74 EP MM NOT_NAMED 1954-09-29 21:00:00 TS 14.0056 -102.085 main 384 366 P________PP___ EP091954 14.0050 -102.093 HU 75 1 14.0050 -102.093 TC 75 14.0080 -102.055 4 4 326
1954270N14264 1954 74 EP MM NOT_NAMED 1954-09-30 00:00:00 TS 14.2000 -102.200 75 hurdat_epa main 366 338 O________OO___ hurdat_epa EP091954 14.2000 -102.200 HU 75 1 14.2000 -102.200 TC 75 14.2000 -102.200 4 6 332
1954270N14264 1954 74 EP MM NOT_NAMED 1954-09-30 03:00:00 TS 14.5161 -102.371 main 342 312 P________PP___ EP091954 14.5625 -102.377 HU 75 1 14.5625 -102.377 TC 75 14.3304 -102.344 4 8 332
1954270N14264 1954 74 EP MM NOT_NAMED 1954-09-30 06:00:00 TS 14.9131 -102.584 75 hurdat_epa main 312 288 O________OP___ hurdat_epa EP091954 15.0000 -102.600 HU 75 1 15.0000 -102.600 TC 75 14.5656 -102.522 4 9 333
1954270N14264 1954 74 EP MM NOT_NAMED 1954-09-30 09:00:00 TS 15.3234 -102.797 main 288 249 P________PP___ EP091954 15.3998 -102.805 HU 75 1 15.3998 -102.805 TC 75 15.0179 -102.764 4 10 331
1954270N14264 1954 74 EP MM NOT_NAMED 1954-09-30 12:00:00 TS 15.8000 -103.100 75 hurdat_epa main 249 211 O________OO___ hurdat_epa EP091954 15.8000 -103.100 HU 75 1 15.8000 -103.100 TC 75 15.8000 -103.100 4 13 326
1954270N14264 1954 74 EP MM NOT_NAMED 1954-09-30 15:00:00 TS 16.3756 -103.542 main 200 165 P________PP___ EP091954 16.2224 -103.540 HU 75 1 16.2224 -103.540 TC 75 16.9882 -103.551 4 15 321
1954270N14264 1954 74 EP MM NOT_NAMED 1954-09-30 18:00:00 TS 16.9819 -104.100 75 hurdat_epa main 158 146 O________OP___ hurdat_epa EP091954 16.6000 -104.100 HU 75 1 16.6000 -104.100 TC 75 18.5097 -104.102 4 16 316
1954270N14264 1954 74 EP MM NOT_NAMED 1954-09-30 21:00:00 TS 17.5547 -104.731 main 149 138 P________PP___ EP091954 16.8804 -104.732 HU 75 1 16.8804 -104.732 TC 75 20.2519 -104.728 4 17 312
1954270N14264 1954 74 EP MM NOT_NAMED 1954-10-01 00:00:00 TS 18.1000 -105.400 75 hurdat_epa main 138 O________OO___ hurdat_epa EP091954 17.1000 -105.400 HU 75 1 17.1000 -105.400 TC 75 22.1000 -105.400 4 17 311

IBTrACS Databaseについて

本データベースは、米国NOAAが公開する1842年以降の世界の熱帯低気圧のベストトラックデータアーカイブInternational Best Track Archive for Climate Stewardship (IBTrACS)を、ウェブで閲覧しやすい形式に変換したものです。

最終更新日:2021-12-03